sensor_id;sensor_type;location;lat;lon;timestamp;P1;durP1;ratioP1;P2;durP2;ratioP2
23684;SDS011;12020;51.384;6.908;2022-09-20T00:00:41;8.93;;;4.10;;
23684;SDS011;12020;51.384;6.908;2022-09-20T00:03:08;9.70;;;4.45;;
23684;SDS011;12020;51.384;6.908;2022-09-20T00:05:36;7.88;;;4.28;;
23684;SDS011;12020;51.384;6.908;2022-09-20T00:08:03;8.90;;;4.80;;
23684;SDS011;12020;51.384;6.908;2022-09-20T00:10:32;11.18;;;6.25;;
23684;SDS011;12020;51.384;6.908;2022-09-20T00:13:00;10.50;;;5.03;;
23684;SDS011;12020;51.384;6.908;2022-09-20T00:15:27;8.82;;;4.60;;
23684;SDS011;12020;51.384;6.908;2022-09-20T00:17:53;8.27;;;5.15;;
23684;SDS011;12020;51.384;6.908;2022-09-20T00:20:22;11.52;;;5.22;;
23684;SDS011;12020;51.384;6.908;2022-09-20T00:22:48;8.32;;;5.40;;
23684;SDS011;12020;51.384;6.908;2022-09-20T00:25:14;10.63;;;5.33;;
23684;SDS011;12020;51.384;6.908;2022-09-20T00:27:43;10.00;;;5.50;;
23684;SDS011;12020;51.384;6.908;2022-09-20T00:30:10;9.33;;;5.20;;
23684;SDS011;12020;51.384;6.908;2022-09-20T00:32:36;8.85;;;5.40;;
23684;SDS011;12020;51.384;6.908;2022-09-20T00:35:02;8.53;;;5.10;;
23684;SDS011;12020;51.384;6.908;2022-09-20T00:37:38;12.18;;;5.72;;
23684;SDS011;12020;51.384;6.908;2022-09-20T00:40:07;11.65;;;5.63;;
23684;SDS011;12020;51.384;6.908;2022-09-20T00:42:36;11.95;;;5.55;;
23684;SDS011;12020;51.384;6.908;2022-09-20T00:47:42;9.60;;;5.65;;
23684;SDS011;12020;51.384;6.908;2022-09-20T00:53:06;12.15;;;5.82;;
23684;SDS011;12020;51.384;6.908;2022-09-20T00:55:36;9.00;;;5.75;;
23684;SDS011;12020;51.384;6.908;2022-09-20T00:58:07;8.40;;;5.05;;
23684;SDS011;12020;51.384;6.908;2022-09-20T01:00:34;8.98;;;5.30;;
23684;SDS011;12020;51.384;6.908;2022-09-20T01:03:02;8.18;;;4.80;;
23684;SDS011;12020;51.384;6.908;2022-09-20T01:05:32;8.80;;;4.32;;
23684;SDS011;12020;51.384;6.908;2022-09-20T01:07:59;7.50;;;4.25;;
23684;SDS011;12020;51.384;6.908;2022-09-20T01:10:26;9.03;;;4.30;;
23684;SDS011;12020;51.384;6.908;2022-09-20T01:12:52;8.20;;;4.28;;
23684;SDS011;12020;51.384;6.908;2022-09-20T01:15:18;7.97;;;3.83;;
23684;SDS011;12020;51.384;6.908;2022-09-20T01:17:49;7.70;;;4.60;;
23684;SDS011;12020;51.384;6.908;2022-09-20T01:28:20;7.63;;;4.50;;
23684;SDS011;12020;51.384;6.908;2022-09-20T01:30:49;6.70;;;4.03;;
23684;SDS011;12020;51.384;6.908;2022-09-20T01:37:00;8.50;;;4.27;;
23684;SDS011;12020;51.384;6.908;2022-09-20T01:39:45;10.38;;;5.30;;
23684;SDS011;12020;51.384;6.908;2022-09-20T01:42:35;8.50;;;5.07;;
23684;SDS011;12020;51.384;6.908;2022-09-20T01:48:38;7.40;;;5.18;;
23684;SDS011;12020;51.384;6.908;2022-09-20T01:51:17;8.93;;;5.47;;
23684;SDS011;12020;51.384;6.908;2022-09-20T02:13:29;6.97;;;5.03;;
23684;SDS011;12020;51.384;6.908;2022-09-20T02:24:57;8.93;;;5.50;;
23684;SDS011;12020;51.384;6.908;2022-09-20T02:35:45;9.00;;;5.47;;
23684;SDS011;12020;51.384;6.908;2022-09-20T02:43:39;8.37;;;5.10;;
23684;SDS011;12020;51.384;6.908;2022-09-20T02:46:44;9.55;;;5.30;;
23684;SDS011;12020;51.384;6.908;2022-09-20T03:06:20;9.73;;;5.00;;
23684;SDS011;12020;51.384;6.908;2022-09-20T03:14:44;5.80;;;4.50;;
23684;SDS011;12020;51.384;6.908;2022-09-20T03:17:38;6.22;;;4.55;;
23684;SDS011;12020;51.384;6.908;2022-09-20T03:25:50;7.50;;;4.87;;
23684;SDS011;12020;51.384;6.908;2022-09-20T03:59:05;7.70;;;5.10;;
23684;SDS011;12020;51.384;6.908;2022-09-20T04:04:46;8.27;;;4.70;;
23684;SDS011;12020;51.384;6.908;2022-09-20T04:10:14;8.57;;;4.95;;
23684;SDS011;12020;51.384;6.908;2022-09-20T04:19:00;5.85;;;4.40;;
23684;SDS011;12020;51.384;6.908;2022-09-20T04:27:34;4.70;;;3.60;;
23684;SDS011;12020;51.384;6.908;2022-09-20T04:32:50;5.60;;;3.67;;
23684;SDS011;12020;51.384;6.908;2022-09-20T04:38:25;8.67;;;3.70;;
23684;SDS011;12020;51.384;6.908;2022-09-20T05:00:21;8.00;;;3.80;;
23684;SDS011;12020;51.384;6.908;2022-09-20T05:13:41;10.27;;;4.70;;
23684;SDS011;12020;51.384;6.908;2022-09-20T05:35:41;8.57;;;5.35;;
23684;SDS011;12020;51.384;6.908;2022-09-20T05:41:09;8.55;;;5.80;;
23684;SDS011;12020;51.384;6.908;2022-09-20T06:00:39;9.25;;;5.40;;
23684;SDS011;12020;51.384;6.908;2022-09-20T06:11:42;8.70;;;5.03;;
23684;SDS011;12020;51.384;6.908;2022-09-20T06:19:57;11.07;;;5.82;;
23684;SDS011;12020;51.384;6.908;2022-09-20T06:22:28;6.85;;;4.65;;
23684;SDS011;12020;51.384;6.908;2022-09-20T06:27:34;10.93;;;5.60;;
23684;SDS011;12020;51.384;6.908;2022-09-20T06:30:06;11.23;;;5.95;;
23684;SDS011;12020;51.384;6.908;2022-09-20T06:32:52;8.25;;;5.82;;
23684;SDS011;12020;51.384;6.908;2022-09-20T06:35:19;9.32;;;5.95;;
23684;SDS011;12020;51.384;6.908;2022-09-20T06:38:01;11.15;;;6.10;;
23684;SDS011;12020;51.384;6.908;2022-09-20T06:41:15;9.60;;;5.67;;
23684;SDS011;12020;51.384;6.908;2022-09-20T06:43:54;10.57;;;5.80;;
23684;SDS011;12020;51.384;6.908;2022-09-20T06:46:22;10.55;;;5.85;;
23684;SDS011;12020;51.384;6.908;2022-09-20T06:48:51;9.02;;;6.00;;
23684;SDS011;12020;51.384;6.908;2022-09-20T06:51:16;9.17;;;6.10;;
23684;SDS011;12020;51.384;6.908;2022-09-20T06:53:43;8.03;;;5.77;;
23684;SDS011;12020;51.384;6.908;2022-09-20T06:56:14;10.97;;;5.77;;
23684;SDS011;12020;51.384;6.908;2022-09-20T06:58:43;12.35;;;6.47;;
23684;SDS011;12020;51.384;6.908;2022-09-20T07:01:09;9.73;;;6.30;;
23684;SDS011;12020;51.384;6.908;2022-09-20T07:03:38;11.07;;;6.50;;
23684;SDS011;12020;51.384;6.908;2022-09-20T07:06:04;9.20;;;6.22;;
23684;SDS011;12020;51.384;6.908;2022-09-20T07:08:30;10.48;;;6.45;;
23684;SDS011;12020;51.384;6.908;2022-09-20T07:10:56;9.68;;;6.63;;
23684;SDS011;12020;51.384;6.908;2022-09-20T07:13:26;11.95;;;6.90;;
23684;SDS011;12020;51.384;6.908;2022-09-20T07:15:58;11.93;;;7.13;;
23684;SDS011;12020;51.384;6.908;2022-09-20T07:18:25;11.75;;;6.82;;
23684;SDS011;12020;51.384;6.908;2022-09-20T07:20:51;11.13;;;6.70;;
23684;SDS011;12020;51.384;6.908;2022-09-20T07:23:18;11.85;;;7.05;;
23684;SDS011;12020;51.384;6.908;2022-09-20T07:25:43;10.70;;;6.90;;
23684;SDS011;12020;51.384;6.908;2022-09-20T07:28:09;11.32;;;6.40;;
23684;SDS011;12020;51.384;6.908;2022-09-20T07:30:35;11.00;;;6.35;;
23684;SDS011;12020;51.384;6.908;2022-09-20T07:33:03;12.05;;;5.75;;
23684;SDS011;12020;51.384;6.908;2022-09-20T07:35:28;9.10;;;5.63;;
23684;SDS011;12020;51.384;6.908;2022-09-20T07:37:55;11.77;;;5.55;;
23684;SDS011;12020;51.384;6.908;2022-09-20T07:40:21;10.27;;;5.40;;
23684;SDS011;12020;51.384;6.908;2022-09-20T07:42:47;9.85;;;5.40;;
23684;SDS011;12020;51.384;6.908;2022-09-20T07:45:13;9.13;;;5.30;;
23684;SDS011;12020;51.384;6.908;2022-09-20T07:47:39;11.57;;;6.10;;
23684;SDS011;12020;51.384;6.908;2022-09-20T07:50:06;13.10;;;5.72;;
23684;SDS011;12020;51.384;6.908;2022-09-20T07:52:35;8.95;;;5.50;;
23684;SDS011;12020;51.384;6.908;2022-09-20T07:55:01;11.88;;;5.55;;
23684;SDS011;12020;51.384;6.908;2022-09-20T07:57:26;11.43;;;5.80;;
23684;SDS011;12020;51.384;6.908;2022-09-20T07:59:52;11.27;;;5.93;;
23684;SDS011;12020;51.384;6.908;2022-09-20T08:02:18;10.82;;;5.68;;
23684;SDS011;12020;51.384;6.908;2022-09-20T08:04:44;10.77;;;4.97;;
23684;SDS011;12020;51.384;6.908;2022-09-20T08:07:14;10.10;;;5.55;;
23684;SDS011;12020;51.384;6.908;2022-09-20T08:09:40;11.05;;;5.60;;
23684;SDS011;12020;51.384;6.908;2022-09-20T08:12:06;10.65;;;5.13;;
23684;SDS011;12020;51.384;6.908;2022-09-20T08:14:32;10.50;;;5.05;;
23684;SDS011;12020;51.384;6.908;2022-09-20T08:16:58;10.23;;;5.10;;
23684;SDS011;12020;51.384;6.908;2022-09-20T08:19:24;11.45;;;5.07;;
23684;SDS011;12020;51.384;6.908;2022-09-20T08:21:51;11.53;;;5.23;;
23684;SDS011;12020;51.384;6.908;2022-09-20T08:24:40;9.35;;;4.38;;
23684;SDS011;12020;51.384;6.908;2022-09-20T08:27:06;11.90;;;5.50;;
23684;SDS011;12020;51.384;6.908;2022-09-20T08:29:33;12.57;;;5.83;;
23684;SDS011;12020;51.384;6.908;2022-09-20T08:32:02;13.32;;;7.00;;
23684;SDS011;12020;51.384;6.908;2022-09-20T08:34:28;10.07;;;7.60;;
23684;SDS011;12020;51.384;6.908;2022-09-20T08:36:58;11.35;;;7.63;;
23684;SDS011;12020;51.384;6.908;2022-09-20T08:39:23;8.57;;;5.97;;
23684;SDS011;12020;51.384;6.908;2022-09-20T08:44:47;7.65;;;3.45;;
23684;SDS011;12020;51.384;6.908;2022-09-20T08:50:11;7.50;;;3.25;;
23684;SDS011;12020;51.384;6.908;2022-09-20T08:52:43;7.72;;;3.05;;
23684;SDS011;12020;51.384;6.908;2022-09-20T08:55:19;6.55;;;2.75;;
23684;SDS011;12020;51.384;6.908;2022-09-20T08:57:56;8.57;;;2.80;;
23684;SDS011;12020;51.384;6.908;2022-09-20T09:00:24;6.68;;;2.97;;
23684;SDS011;12020;51.384;6.908;2022-09-20T09:03:12;7.32;;;3.30;;
23684;SDS011;12020;51.384;6.908;2022-09-20T09:06:17;7.50;;;3.00;;
23684;SDS011;12020;51.384;6.908;2022-09-20T09:14:35;8.20;;;2.60;;
23684;SDS011;12020;51.384;6.908;2022-09-20T09:17:21;6.90;;;2.35;;
23684;SDS011;12020;51.384;6.908;2022-09-20T09:22:58;8.45;;;2.50;;
23684;SDS011;12020;51.384;6.908;2022-09-20T09:25:07;7.75;;;2.58;;
23684;SDS011;12020;51.384;6.908;2022-09-20T09:30:26;4.68;;;1.77;;
23684;SDS011;12020;51.384;6.908;2022-09-20T09:36:35;9.75;;;3.20;;
23684;SDS011;12020;51.384;6.908;2022-09-20T09:38:47;7.55;;;3.17;;
23684;SDS011;12020;51.384;6.908;2022-09-20T09:41:21;8.20;;;3.70;;
23684;SDS011;12020;51.384;6.908;2022-09-20T09:44:24;8.45;;;3.28;;
23684;SDS011;12020;51.384;6.908;2022-09-20T09:46:55;8.50;;;3.30;;
23684;SDS011;12020;51.384;6.908;2022-09-20T09:49:28;7.95;;;3.50;;
23684;SDS011;12020;51.384;6.908;2022-09-20T09:54:47;8.88;;;3.15;;
23684;SDS011;12020;51.384;6.908;2022-09-20T10:00:18;7.53;;;2.90;;
23684;SDS011;12020;51.384;6.908;2022-09-20T10:13:17;6.50;;;2.60;;
23684;SDS011;12020;51.384;6.908;2022-09-20T10:19:22;8.57;;;2.58;;
23684;SDS011;12020;51.384;6.908;2022-09-20T10:21:55;6.65;;;2.20;;
23684;SDS011;12020;51.384;6.908;2022-09-20T10:28:04;6.60;;;2.22;;
23684;SDS011;12020;51.384;6.908;2022-09-20T10:31:03;7.10;;;2.23;;
23684;SDS011;12020;51.384;6.908;2022-09-20T10:36:41;7.85;;;2.15;;
23684;SDS011;12020;51.384;6.908;2022-09-20T10:39:35;4.80;;;1.83;;
23684;SDS011;12020;51.384;6.908;2022-09-20T11:30:16;4.93;;;1.70;;
23684;SDS011;12020;51.384;6.908;2022-09-20T11:35:34;4.95;;;1.70;;
23684;SDS011;12020;51.384;6.908;2022-09-20T11:38:41;4.20;;;1.60;;
23684;SDS011;12020;51.384;6.908;2022-09-20T11:41:28;5.38;;;1.60;;
23684;SDS011;12020;51.384;6.908;2022-09-20T11:43:56;5.18;;;1.80;;
23684;SDS011;12020;51.384;6.908;2022-09-20T11:46:39;5.72;;;1.75;;
23684;SDS011;12020;51.384;6.908;2022-09-20T12:00:52;4.15;;;1.60;;
23684;SDS011;12020;51.384;6.908;2022-09-20T12:28:47;4.23;;;1.40;;
23684;SDS011;12020;51.384;6.908;2022-09-20T12:36:32;4.40;;;1.10;;
23684;SDS011;12020;51.384;6.908;2022-09-20T12:47:05;3.57;;;1.00;;
23684;SDS011;12020;51.384;6.908;2022-09-20T12:52:39;3.40;;;1.30;;
23684;SDS011;12020;51.384;6.908;2022-09-20T12:55:38;3.28;;;1.00;;
23684;SDS011;12020;51.384;6.908;2022-09-20T12:58:17;2.33;;;0.82;;
23684;SDS011;12020;51.384;6.908;2022-09-20T13:03:31;2.08;;;0.90;;
23684;SDS011;12020;51.384;6.908;2022-09-20T13:14:24;3.38;;;1.25;;
23684;SDS011;12020;51.384;6.908;2022-09-20T13:16:55;4.88;;;1.30;;
23684;SDS011;12020;51.384;6.908;2022-09-20T13:19:27;4.30;;;1.23;;
23684;SDS011;12020;51.384;6.908;2022-09-20T13:24:55;3.25;;;1.40;;
23684;SDS011;12020;51.384;6.908;2022-09-20T13:27:34;2.90;;;1.27;;
23684;SDS011;12020;51.384;6.908;2022-09-20T13:32:50;3.53;;;1.40;;
23684;SDS011;12020;51.384;6.908;2022-09-20T13:35:23;5.05;;;1.20;;
23684;SDS011;12020;51.384;6.908;2022-09-20T13:38:01;3.88;;;1.35;;
23684;SDS011;12020;51.384;6.908;2022-09-20T13:46:12;3.47;;;1.05;;
23684;SDS011;12020;51.384;6.908;2022-09-20T13:48:42;4.95;;;1.17;;
23684;SDS011;12020;51.384;6.908;2022-09-20T13:51:15;2.63;;;1.00;;
23684;SDS011;12020;51.384;6.908;2022-09-20T14:00:22;5.07;;;1.95;;
23684;SDS011;12020;51.384;6.908;2022-09-20T14:02:52;5.80;;;2.10;;
23684;SDS011;12020;51.384;6.908;2022-09-20T14:06:29;4.90;;;2.15;;
23684;SDS011;12020;51.384;6.908;2022-09-20T17:02:23;1.90;;;0.87;;
23684;SDS011;12020;51.384;6.908;2022-09-20T17:04:49;3.00;;;1.27;;
23684;SDS011;12020;51.384;6.908;2022-09-20T17:07:28;2.80;;;1.20;;
23684;SDS011;12020;51.384;6.908;2022-09-20T17:10:00;3.13;;;1.10;;
23684;SDS011;12020;51.384;6.908;2022-09-20T17:15:30;2.70;;;1.23;;
23684;SDS011;12020;51.384;6.908;2022-09-20T17:18:36;2.83;;;1.13;;
23684;SDS011;12020;51.384;6.908;2022-09-20T17:21:06;4.00;;;1.20;;
23684;SDS011;12020;51.384;6.908;2022-09-20T17:23:39;3.37;;;0.93;;
23684;SDS011;12020;51.384;6.908;2022-09-20T17:26:15;4.67;;;1.20;;
23684;SDS011;12020;51.384;6.908;2022-09-20T18:02:00;4.13;;;1.15;;
23684;SDS011;12020;51.384;6.908;2022-09-20T18:04:33;4.07;;;1.30;;
23684;SDS011;12020;51.384;6.908;2022-09-20T18:07:00;3.55;;;1.20;;
23684;SDS011;12020;51.384;6.908;2022-09-20T18:09:29;4.23;;;1.30;;
23684;SDS011;12020;51.384;6.908;2022-09-20T18:13:00;4.00;;;1.30;;
23684;SDS011;12020;51.384;6.908;2022-09-20T19:29:33;5.38;;;2.35;;
23684;SDS011;12020;51.384;6.908;2022-09-20T19:32:03;4.30;;;2.20;;
23684;SDS011;12020;51.384;6.908;2022-09-20T19:34:30;3.60;;;2.13;;
23684;SDS011;12020;51.384;6.908;2022-09-20T19:37:05;3.65;;;2.13;;
23684;SDS011;12020;51.384;6.908;2022-09-20T19:39:38;4.30;;;2.30;;
23684;SDS011;12020;51.384;6.908;2022-09-20T19:48:45;5.03;;;2.25;;
23684;SDS011;12020;51.384;6.908;2022-09-20T19:51:37;4.28;;;2.40;;
23684;SDS011;12020;51.384;6.908;2022-09-20T20:00:30;4.25;;;2.40;;
23684;SDS011;12020;51.384;6.908;2022-09-20T20:03:00;3.90;;;2.13;;
23684;SDS011;12020;51.384;6.908;2022-09-20T20:05:28;5.82;;;2.47;;
23684;SDS011;12020;51.384;6.908;2022-09-20T20:10:28;3.80;;;2.70;;
23684;SDS011;12020;51.384;6.908;2022-09-20T20:16:01;4.72;;;2.67;;
23684;SDS011;12020;51.384;6.908;2022-09-20T20:18:36;5.55;;;2.67;;
23684;SDS011;12020;51.384;6.908;2022-09-20T20:21:27;5.25;;;2.80;;
23684;SDS011;12020;51.384;6.908;2022-09-20T20:24:08;4.35;;;2.65;;
23684;SDS011;12020;51.384;6.908;2022-09-20T20:26:49;4.53;;;2.75;;
23684;SDS011;12020;51.384;6.908;2022-09-20T20:29:15;3.90;;;3.03;;
23684;SDS011;12020;51.384;6.908;2022-09-20T20:31:41;3.40;;;2.60;;
23684;SDS011;12020;51.384;6.908;2022-09-20T20:34:06;4.77;;;3.00;;
23684;SDS011;12020;51.384;6.908;2022-09-20T20:36:33;5.60;;;2.60;;
23684;SDS011;12020;51.384;6.908;2022-09-20T20:38:59;3.25;;;2.70;;
23684;SDS011;12020;51.384;6.908;2022-09-20T20:41:26;4.82;;;2.75;;
23684;SDS011;12020;51.384;6.908;2022-09-20T20:43:54;4.53;;;3.20;;
23684;SDS011;12020;51.384;6.908;2022-09-20T20:46:20;4.95;;;3.03;;
23684;SDS011;12020;51.384;6.908;2022-09-20T20:48:46;6.43;;;2.97;;
23684;SDS011;12020;51.384;6.908;2022-09-20T20:51:13;6.90;;;3.33;;
23684;SDS011;12020;51.384;6.908;2022-09-20T20:53:44;4.03;;;2.90;;
23684;SDS011;12020;51.384;6.908;2022-09-20T20:58:44;3.88;;;2.83;;
23684;SDS011;12020;51.384;6.908;2022-09-20T21:01:12;4.28;;;3.33;;
23684;SDS011;12020;51.384;6.908;2022-09-20T21:03:40;5.75;;;3.47;;
23684;SDS011;12020;51.384;6.908;2022-09-20T21:06:08;5.57;;;3.30;;
23684;SDS011;12020;51.384;6.908;2022-09-20T21:08:38;4.35;;;3.50;;
23684;SDS011;12020;51.384;6.908;2022-09-20T21:11:06;6.28;;;3.28;;
23684;SDS011;12020;51.384;6.908;2022-09-20T21:13:52;5.93;;;3.60;;
23684;SDS011;12020;51.384;6.908;2022-09-20T21:16:21;4.57;;;3.75;;
23684;SDS011;12020;51.384;6.908;2022-09-20T21:18:59;5.05;;;3.45;;
23684;SDS011;12020;51.384;6.908;2022-09-20T21:23:57;5.20;;;3.60;;
23684;SDS011;12020;51.384;6.908;2022-09-20T21:26:25;6.28;;;3.67;;
23684;SDS011;12020;51.384;6.908;2022-09-20T21:28:56;5.60;;;3.67;;
23684;SDS011;12020;51.384;6.908;2022-09-20T21:31:26;5.43;;;3.50;;
23684;SDS011;12020;51.384;6.908;2022-09-20T21:33:57;5.23;;;3.33;;
23684;SDS011;12020;51.384;6.908;2022-09-20T21:36:27;3.92;;;3.40;;
23684;SDS011;12020;51.384;6.908;2022-09-20T21:38:54;4.93;;;3.00;;
23684;SDS011;12020;51.384;6.908;2022-09-20T21:41:28;5.10;;;3.30;;
23684;SDS011;12020;51.384;6.908;2022-09-20T21:43:55;4.65;;;3.10;;
23684;SDS011;12020;51.384;6.908;2022-09-20T21:46:31;5.70;;;3.25;;
23684;SDS011;12020;51.384;6.908;2022-09-20T21:48:59;4.57;;;3.30;;
23684;SDS011;12020;51.384;6.908;2022-09-20T21:51:28;6.57;;;3.60;;
23684;SDS011;12020;51.384;6.908;2022-09-20T21:53:55;5.28;;;3.38;;
23684;SDS011;12020;51.384;6.908;2022-09-20T21:56:22;5.88;;;3.67;;
23684;SDS011;12020;51.384;6.908;2022-09-20T21:58:51;6.32;;;2.95;;
23684;SDS011;12020;51.384;6.908;2022-09-20T22:01:18;4.28;;;3.20;;
23684;SDS011;12020;51.384;6.908;2022-09-20T22:03:46;4.68;;;2.95;;
23684;SDS011;12020;51.384;6.908;2022-09-20T22:06:17;5.35;;;2.92;;
23684;SDS011;12020;51.384;6.908;2022-09-20T22:08:53;5.40;;;3.22;;
23684;SDS011;12020;51.384;6.908;2022-09-20T22:11:22;3.58;;;3.03;;
23684;SDS011;12020;51.384;6.908;2022-09-20T22:13:50;4.35;;;3.20;;
23684;SDS011;12020;51.384;6.908;2022-09-20T22:16:17;5.30;;;3.10;;
23684;SDS011;12020;51.384;6.908;2022-09-20T22:18:45;4.40;;;3.10;;
23684;SDS011;12020;51.384;6.908;2022-09-20T22:21:12;4.63;;;2.83;;
23684;SDS011;12020;51.384;6.908;2022-09-20T22:23:40;5.53;;;3.00;;
23684;SDS011;12020;51.384;6.908;2022-09-20T22:26:10;4.90;;;2.90;;
23684;SDS011;12020;51.384;6.908;2022-09-20T22:28:38;5.38;;;2.90;;
23684;SDS011;12020;51.384;6.908;2022-09-20T22:31:08;3.97;;;2.90;;
23684;SDS011;12020;51.384;6.908;2022-09-20T22:33:39;4.53;;;3.28;;
23684;SDS011;12020;51.384;6.908;2022-09-20T22:36:07;5.55;;;3.30;;
23684;SDS011;12020;51.384;6.908;2022-09-20T22:38:34;6.97;;;3.50;;
23684;SDS011;12020;51.384;6.908;2022-09-20T22:41:00;5.32;;;3.50;;
23684;SDS011;12020;51.384;6.908;2022-09-20T22:43:26;6.40;;;3.30;;
23684;SDS011;12020;51.384;6.908;2022-09-20T22:46:00;5.07;;;3.22;;
23684;SDS011;12020;51.384;6.908;2022-09-20T22:48:32;5.07;;;3.40;;
23684;SDS011;12020;51.384;6.908;2022-09-20T22:51:02;6.05;;;4.03;;
23684;SDS011;12020;51.384;6.908;2022-09-20T22:53:29;5.50;;;3.70;;
23684;SDS011;12020;51.384;6.908;2022-09-20T22:56:06;4.33;;;3.13;;
23684;SDS011;12020;51.384;6.908;2022-09-20T22:58:41;5.47;;;3.00;;
23684;SDS011;12020;51.384;6.908;2022-09-20T23:25:54;6.07;;;3.73;;
23684;SDS011;12020;51.384;6.908;2022-09-20T23:28:37;4.50;;;3.90;;
23684;SDS011;12020;51.384;6.908;2022-09-20T23:31:07;4.87;;;4.00;;
23684;SDS011;12020;51.384;6.908;2022-09-20T23:33:35;6.10;;;4.13;;
23684;SDS011;12020;51.384;6.908;2022-09-20T23:36:08;7.20;;;3.50;;
23684;SDS011;12020;51.384;6.908;2022-09-20T23:38:35;4.07;;;3.40;;
23684;SDS011;12020;51.384;6.908;2022-09-20T23:41:07;8.53;;;3.87;;
23684;SDS011;12020;51.384;6.908;2022-09-20T23:43:35;5.67;;;3.10;;
23684;SDS011;12020;51.384;6.908;2022-09-20T23:46:01;4.07;;;3.00;;
23684;SDS011;12020;51.384;6.908;2022-09-20T23:48:29;4.23;;;3.37;;
23684;SDS011;12020;51.384;6.908;2022-09-20T23:50:56;6.73;;;3.90;;
23684;SDS011;12020;51.384;6.908;2022-09-20T23:53:22;7.07;;;4.33;;
23684;SDS011;12020;51.384;6.908;2022-09-20T23:55:48;7.37;;;4.00;;
23684;SDS011;12020;51.384;6.908;2022-09-20T23:58:14;4.40;;;4.00;;
